sensor_id;sensor_type;location;lat;lon;timestamp;temperature;humidity
7542;DHT22;3812;50.006;8.230;2022-12-18T00:02:22;-7.70;13.70
7542;DHT22;3812;50.006;8.230;2022-12-18T00:04:49;-7.70;14.50
7542;DHT22;3812;50.006;8.230;2022-12-18T00:07:18;-7.80;13.20
7542;DHT22;3812;50.006;8.230;2022-12-18T00:09:45;-7.80;10.50
7542;DHT22;3812;50.006;8.230;2022-12-18T00:12:12;-7.80;7.50
7542;DHT22;3812;50.006;8.230;2022-12-18T00:14:39;-7.90;5.30
7542;DHT22;3812;50.006;8.230;2022-12-18T00:17:06;-8.00;2.80
7542;DHT22;3812;50.006;8.230;2022-12-18T00:19:34;-8.00;2.20
7542;DHT22;3812;50.006;8.230;2022-12-18T00:22:01;-7.90;3.70
7542;DHT22;3812;50.006;8.230;2022-12-18T00:24:29;-8.00;4.60
7542;DHT22;3812;50.006;8.230;2022-12-18T00:26:56;-8.00;4.80
7542;DHT22;3812;50.006;8.230;2022-12-18T00:29:23;-8.00;5.30
7542;DHT22;3812;50.006;8.230;2022-12-18T00:31:50;-8.00;7.40
7542;DHT22;3812;50.006;8.230;2022-12-18T00:34:17;-8.00;8.00
7542;DHT22;3812;50.006;8.230;2022-12-18T00:36:46;-8.00;5.20
7542;DHT22;3812;50.006;8.230;2022-12-18T00:39:13;-8.10;3.00
7542;DHT22;3812;50.006;8.230;2022-12-18T00:41:45;-8.00;3.30
7542;DHT22;3812;50.006;8.230;2022-12-18T00:44:30;-8.00;3.10
7542;DHT22;3812;50.006;8.230;2022-12-18T00:46:57;-7.90;1.00
7542;DHT22;3812;50.006;8.230;2022-12-18T00:49:24;-8.00;1.00
7542;DHT22;3812;50.006;8.230;2022-12-18T00:51:51;-8.00;1.00
7542;DHT22;3812;50.006;8.230;2022-12-18T00:54:18;-8.10;1.00
7542;DHT22;3812;50.006;8.230;2022-12-18T00:56:46;-8.10;1.00
7542;DHT22;3812;50.006;8.230;2022-12-18T00:59:13;-8.10;1.00
7542;DHT22;3812;50.006;8.230;2022-12-18T01:01:40;-8.10;1.00
7542;DHT22;3812;50.006;8.230;2022-12-18T01:04:08;-8.00;1.00
7542;DHT22;3812;50.006;8.230;2022-12-18T01:06:36;-8.00;1.00
7542;DHT22;3812;50.006;8.230;2022-12-18T01:09:03;-8.00;1.00
7542;DHT22;3812;50.006;8.230;2022-12-18T01:11:30;-8.10;1.00
7542;DHT22;3812;50.006;8.230;2022-12-18T01:13:59;-8.10;1.00
7542;DHT22;3812;50.006;8.230;2022-12-18T01:16:26;-8.10;1.00
7542;DHT22;3812;50.006;8.230;2022-12-18T01:18:53;-8.10;1.00
7542;DHT22;3812;50.006;8.230;2022-12-18T01:21:21;-8.10;1.00
7542;DHT22;3812;50.006;8.230;2022-12-18T01:23:51;-8.10;1.00
7542;DHT22;3812;50.006;8.230;2022-12-18T01:26:19;-8.00;1.00
7542;DHT22;3812;50.006;8.230;2022-12-18T01:28:46;-8.00;1.00
7542;DHT22;3812;50.006;8.230;2022-12-18T01:31:17;-8.00;1.00
7542;DHT22;3812;50.006;8.230;2022-12-18T01:33:46;-8.10;1.00
7542;DHT22;3812;50.006;8.230;2022-12-18T01:36:18;-8.20;1.00
7542;DHT22;3812;50.006;8.230;2022-12-18T01:38:46;-8.30;1.00
7542;DHT22;3812;50.006;8.230;2022-12-18T01:41:13;-8.30;1.00
7542;DHT22;3812;50.006;8.230;2022-12-18T01:43:42;-8.30;1.00
7542;DHT22;3812;50.006;8.230;2022-12-18T01:46:09;-8.30;1.00
7542;DHT22;3812;50.006;8.230;2022-12-18T01:48:39;-8.30;1.00
7542;DHT22;3812;50.006;8.230;2022-12-18T01:51:08;-8.30;1.00
7542;DHT22;3812;50.006;8.230;2022-12-18T01:53:37;-8.40;1.00
7542;DHT22;3812;50.006;8.230;2022-12-18T01:56:04;-8.40;1.00
7542;DHT22;3812;50.006;8.230;2022-12-18T01:58:38;-8.50;1.00
7542;DHT22;3812;50.006;8.230;2022-12-18T02:01:07;-8.50;1.00
7542;DHT22;3812;50.006;8.230;2022-12-18T02:03:34;-8.70;1.00
7542;DHT22;3812;50.006;8.230;2022-12-18T02:06:09;-8.80;1.00
7542;DHT22;3812;50.006;8.230;2022-12-18T02:08:47;-8.80;1.00
7542;DHT22;3812;50.006;8.230;2022-12-18T02:11:20;-8.80;1.00
7542;DHT22;3812;50.006;8.230;2022-12-18T02:13:58;-8.80;1.00
7542;DHT22;3812;50.006;8.230;2022-12-18T02:16:34;-8.80;1.00
7542;DHT22;3812;50.006;8.230;2022-12-18T02:19:12;-8.80;1.00
7542;DHT22;3812;50.006;8.230;2022-12-18T02:21:49;-8.80;1.00
7542;DHT22;3812;50.006;8.230;2022-12-18T02:24:29;-8.80;1.00
7542;DHT22;3812;50.006;8.230;2022-12-18T02:27:02;-8.90;1.00
7542;DHT22;3812;50.006;8.230;2022-12-18T02:29:34;-8.80;1.00
7542;DHT22;3812;50.006;8.230;2022-12-18T02:32:07;-8.90;1.00
7542;DHT22;3812;50.006;8.230;2022-12-18T02:34:38;-8.90;1.00
7542;DHT22;3812;50.006;8.230;2022-12-18T02:37:11;-9.00;1.00
7542;DHT22;3812;50.006;8.230;2022-12-18T02:39:42;-9.00;1.00
7542;DHT22;3812;50.006;8.230;2022-12-18T02:42:13;-9.10;1.00
7542;DHT22;3812;50.006;8.230;2022-12-18T02:44:45;-9.10;1.00
7542;DHT22;3812;50.006;8.230;2022-12-18T02:47:18;-9.10;1.00
7542;DHT22;3812;50.006;8.230;2022-12-18T02:49:55;-9.10;1.00
7542;DHT22;3812;50.006;8.230;2022-12-18T02:52:30;-9.00;1.00
7542;DHT22;3812;50.006;8.230;2022-12-18T02:55:13;-8.90;1.00
7542;DHT22;3812;50.006;8.230;2022-12-18T02:57:53;-8.90;1.00
7542;DHT22;3812;50.006;8.230;2022-12-18T03:00:28;-8.80;1.00
7542;DHT22;3812;50.006;8.230;2022-12-18T03:03:01;-8.90;1.00
7542;DHT22;3812;50.006;8.230;2022-12-18T03:05:33;-9.00;1.00
7542;DHT22;3812;50.006;8.230;2022-12-18T03:08:06;-9.10;1.00
7542;DHT22;3812;50.006;8.230;2022-12-18T03:10:42;-9.20;1.00
7542;DHT22;3812;50.006;8.230;2022-12-18T03:13:18;-9.30;1.00
7542;DHT22;3812;50.006;8.230;2022-12-18T03:15:49;-9.40;1.00
7542;DHT22;3812;50.006;8.230;2022-12-18T03:18:21;-9.50;1.00
7542;DHT22;3812;50.006;8.230;2022-12-18T03:20:54;-9.50;1.00
7542;DHT22;3812;50.006;8.230;2022-12-18T03:23:24;-9.60;1.00
7542;DHT22;3812;50.006;8.230;2022-12-18T03:25:56;-9.60;1.00
7542;DHT22;3812;50.006;8.230;2022-12-18T03:28:28;-9.60;1.00
7542;DHT22;3812;50.006;8.230;2022-12-18T03:31:01;-9.70;1.00
7542;DHT22;3812;50.006;8.230;2022-12-18T03:33:32;-9.70;1.00
7542;DHT22;3812;50.006;8.230;2022-12-18T03:35:59;-9.60;1.00
7542;DHT22;3812;50.006;8.230;2022-12-18T03:38:27;-9.40;1.00
7542;DHT22;3812;50.006;8.230;2022-12-18T03:41:01;-9.30;1.00
7542;DHT22;3812;50.006;8.230;2022-12-18T03:43:44;-9.30;1.00
7542;DHT22;3812;50.006;8.230;2022-12-18T03:46:20;-9.30;1.00
7542;DHT22;3812;50.006;8.230;2022-12-18T03:48:55;-9.30;1.00
7542;DHT22;3812;50.006;8.230;2022-12-18T03:51:28;-9.30;1.00
7542;DHT22;3812;50.006;8.230;2022-12-18T03:54:04;-9.20;1.00
7542;DHT22;3812;50.006;8.230;2022-12-18T03:56:42;-9.30;1.00
7542;DHT22;3812;50.006;8.230;2022-12-18T03:59:14;-9.40;1.00
7542;DHT22;3812;50.006;8.230;2022-12-18T04:01:45;-9.50;1.00
7542;DHT22;3812;50.006;8.230;2022-12-18T04:04:15;-9.60;1.00
7542;DHT22;3812;50.006;8.230;2022-12-18T04:06:45;-9.70;1.00
7542;DHT22;3812;50.006;8.230;2022-12-18T04:09:14;-9.70;1.00
7542;DHT22;3812;50.006;8.230;2022-12-18T04:11:46;-9.60;1.00
7542;DHT22;3812;50.006;8.230;2022-12-18T04:14:16;-9.70;1.00
7542;DHT22;3812;50.006;8.230;2022-12-18T04:16:43;-9.70;1.00
7542;DHT22;3812;50.006;8.230;2022-12-18T04:19:14;-9.80;1.00
7542;DHT22;3812;50.006;8.230;2022-12-18T04:21:43;-9.80;1.00
7542;DHT22;3812;50.006;8.230;2022-12-18T04:24:11;-9.90;1.00
7542;DHT22;3812;50.006;8.230;2022-12-18T04:26:45;-10.00;1.00
7542;DHT22;3812;50.006;8.230;2022-12-18T04:29:24;-10.00;1.00
7542;DHT22;3812;50.006;8.230;2022-12-18T04:31:51;-10.00;1.00
7542;DHT22;3812;50.006;8.230;2022-12-18T04:34:19;-9.90;1.00
7542;DHT22;3812;50.006;8.230;2022-12-18T04:36:50;-10.00;1.00
7542;DHT22;3812;50.006;8.230;2022-12-18T04:39:17;-10.00;1.00
7542;DHT22;3812;50.006;8.230;2022-12-18T04:41:45;-10.10;1.00
7542;DHT22;3812;50.006;8.230;2022-12-18T04:44:13;-10.10;1.00
7542;DHT22;3812;50.006;8.230;2022-12-18T04:46:41;-10.10;1.00
7542;DHT22;3812;50.006;8.230;2022-12-18T04:49:08;-10.00;1.00
7542;DHT22;3812;50.006;8.230;2022-12-18T04:51:36;-9.90;1.00
7542;DHT22;3812;50.006;8.230;2022-12-18T04:54:03;-9.70;1.00
7542;DHT22;3812;50.006;8.230;2022-12-18T04:56:31;-9.70;1.00
7542;DHT22;3812;50.006;8.230;2022-12-18T04:58:58;-9.70;1.00
7542;DHT22;3812;50.006;8.230;2022-12-18T05:01:25;-9.80;1.00
7542;DHT22;3812;50.006;8.230;2022-12-18T05:03:53;-9.80;1.00
7542;DHT22;3812;50.006;8.230;2022-12-18T05:06:20;-9.90;1.00
7542;DHT22;3812;50.006;8.230;2022-12-18T05:08:47;-9.80;1.00
7542;DHT22;3812;50.006;8.230;2022-12-18T05:11:15;-9.80;1.00
7542;DHT22;3812;50.006;8.230;2022-12-18T05:13:42;-9.70;1.00
7542;DHT22;3812;50.006;8.230;2022-12-18T05:16:10;-9.70;1.00
7542;DHT22;3812;50.006;8.230;2022-12-18T05:18:37;-9.80;1.00
7542;DHT22;3812;50.006;8.230;2022-12-18T05:21:06;-9.90;1.00
7542;DHT22;3812;50.006;8.230;2022-12-18T05:23:34;-10.00;1.00
7542;DHT22;3812;50.006;8.230;2022-12-18T05:26:04;-10.00;1.00
7542;DHT22;3812;50.006;8.230;2022-12-18T05:28:33;-10.10;1.00
7542;DHT22;3812;50.006;8.230;2022-12-18T05:31:01;-10.10;1.00
7542;DHT22;3812;50.006;8.230;2022-12-18T05:33:30;-10.00;1.00
7542;DHT22;3812;50.006;8.230;2022-12-18T05:36:02;-10.00;1.00
7542;DHT22;3812;50.006;8.230;2022-12-18T05:38:32;-9.90;1.00
7542;DHT22;3812;50.006;8.230;2022-12-18T05:40:59;-9.80;1.00
7542;DHT22;3812;50.006;8.230;2022-12-18T05:43:27;-9.80;1.00
7542;DHT22;3812;50.006;8.230;2022-12-18T05:45:54;-9.80;1.00
7542;DHT22;3812;50.006;8.230;2022-12-18T05:48:22;-9.90;1.00
7542;DHT22;3812;50.006;8.230;2022-12-18T05:50:50;-9.80;1.00
7542;DHT22;3812;50.006;8.230;2022-12-18T05:53:19;-9.80;1.00
7542;DHT22;3812;50.006;8.230;2022-12-18T05:55:47;-9.90;1.00
7542;DHT22;3812;50.006;8.230;2022-12-18T05:58:15;-9.90;1.00
7542;DHT22;3812;50.006;8.230;2022-12-18T06:00:44;-9.80;1.00
7542;DHT22;3812;50.006;8.230;2022-12-18T06:03:12;-9.80;1.00
7542;DHT22;3812;50.006;8.230;2022-12-18T06:05:41;-9.70;1.00
7542;DHT22;3812;50.006;8.230;2022-12-18T06:08:09;-9.60;1.00
7542;DHT22;3812;50.006;8.230;2022-12-18T06:10:36;-9.60;1.00
7542;DHT22;3812;50.006;8.230;2022-12-18T06:13:05;-9.50;1.00
7542;DHT22;3812;50.006;8.230;2022-12-18T06:15:32;-9.30;1.00
7542;DHT22;3812;50.006;8.230;2022-12-18T06:18:00;-9.20;1.00
7542;DHT22;3812;50.006;8.230;2022-12-18T06:20:27;-9.20;1.00
7542;DHT22;3812;50.006;8.230;2022-12-18T06:22:54;-9.20;1.00
7542;DHT22;3812;50.006;8.230;2022-12-18T06:25:21;-9.40;1.00
7542;DHT22;3812;50.006;8.230;2022-12-18T06:27:48;-9.50;1.00
7542;DHT22;3812;50.006;8.230;2022-12-18T06:30:16;-9.60;1.00
7542;DHT22;3812;50.006;8.230;2022-12-18T06:32:43;-9.50;1.00
7542;DHT22;3812;50.006;8.230;2022-12-18T06:35:10;-9.50;1.00
7542;DHT22;3812;50.006;8.230;2022-12-18T06:37:37;-9.50;1.00
7542;DHT22;3812;50.006;8.230;2022-12-18T06:40:05;-9.50;1.00
7542;DHT22;3812;50.006;8.230;2022-12-18T06:42:32;-9.50;1.00
7542;DHT22;3812;50.006;8.230;2022-12-18T06:45:00;-9.40;1.00
7542;DHT22;3812;50.006;8.230;2022-12-18T06:47:28;-9.40;1.00
7542;DHT22;3812;50.006;8.230;2022-12-18T06:49:55;-9.20;1.00
7542;DHT22;3812;50.006;8.230;2022-12-18T06:52:22;-9.10;1.00
7542;DHT22;3812;50.006;8.230;2022-12-18T06:54:49;-9.00;1.00
7542;DHT22;3812;50.006;8.230;2022-12-18T06:57:16;-9.00;1.00
7542;DHT22;3812;50.006;8.230;2022-12-18T06:59:42;-8.70;1.00
7542;DHT22;3812;50.006;8.230;2022-12-18T07:02:11;-8.70;1.00
7542;DHT22;3812;50.006;8.230;2022-12-18T07:04:41;-8.60;1.00
7542;DHT22;3812;50.006;8.230;2022-12-18T07:07:08;-8.50;1.00
7542;DHT22;3812;50.006;8.230;2022-12-18T07:09:35;-8.50;1.00
7542;DHT22;3812;50.006;8.230;2022-12-18T07:12:02;-8.40;1.00
7542;DHT22;3812;50.006;8.230;2022-12-18T07:14:30;-8.20;1.00
7542;DHT22;3812;50.006;8.230;2022-12-18T07:16:57;-8.10;1.00
7542;DHT22;3812;50.006;8.230;2022-12-18T07:19:24;-8.10;1.00
7542;DHT22;3812;50.006;8.230;2022-12-18T07:21:52;-8.10;1.00
7542;DHT22;3812;50.006;8.230;2022-12-18T07:24:20;-8.00;1.00
7542;DHT22;3812;50.006;8.230;2022-12-18T07:26:47;-8.00;1.00
7542;DHT22;3812;50.006;8.230;2022-12-18T07:29:14;-7.90;1.00
7542;DHT22;3812;50.006;8.230;2022-12-18T07:31:41;-7.90;1.00
7542;DHT22;3812;50.006;8.230;2022-12-18T07:34:10;-7.90;1.00
7542;DHT22;3812;50.006;8.230;2022-12-18T07:36:37;-8.00;1.00
7542;DHT22;3812;50.006;8.230;2022-12-18T07:39:05;-7.90;1.00
7542;DHT22;3812;50.006;8.230;2022-12-18T07:41:33;-7.90;1.00
7542;DHT22;3812;50.006;8.230;2022-12-18T07:44:09;-7.90;1.00
7542;DHT22;3812;50.006;8.230;2022-12-18T07:46:36;-7.90;1.00
7542;DHT22;3812;50.006;8.230;2022-12-18T07:49:03;-7.80;1.00
7542;DHT22;3812;50.006;8.230;2022-12-18T07:51:30;-7.80;1.00
7542;DHT22;3812;50.006;8.230;2022-12-18T07:53:57;-7.70;1.00
7542;DHT22;3812;50.006;8.230;2022-12-18T07:56:26;-7.60;1.00
7542;DHT22;3812;50.006;8.230;2022-12-18T07:58:53;-7.50;1.00
7542;DHT22;3812;50.006;8.230;2022-12-18T08:01:20;-7.50;1.00
7542;DHT22;3812;50.006;8.230;2022-12-18T08:03:47;-7.40;1.00
7542;DHT22;3812;50.006;8.230;2022-12-18T08:06:14;-7.40;1.00
7542;DHT22;3812;50.006;8.230;2022-12-18T08:08:41;-7.40;1.00
7542;DHT22;3812;50.006;8.230;2022-12-18T08:11:08;-7.30;1.00
7542;DHT22;3812;50.006;8.230;2022-12-18T08:13:36;-7.20;1.00
7542;DHT22;3812;50.006;8.230;2022-12-18T08:16:05;-7.20;1.00
7542;DHT22;3812;50.006;8.230;2022-12-18T08:18:35;-7.20;1.00
7542;DHT22;3812;50.006;8.230;2022-12-18T08:21:08;-7.00;1.00
7542;DHT22;3812;50.006;8.230;2022-12-18T08:23:35;-6.90;1.00
7542;DHT22;3812;50.006;8.230;2022-12-18T08:26:02;-6.90;1.00
7542;DHT22;3812;50.006;8.230;2022-12-18T08:28:30;-6.80;1.00
7542;DHT22;3812;50.006;8.230;2022-12-18T08:30:58;-6.80;1.00
7542;DHT22;3812;50.006;8.230;2022-12-18T08:33:25;-6.70;1.00
7542;DHT22;3812;50.006;8.230;2022-12-18T08:35:53;-6.70;1.00
7542;DHT22;3812;50.006;8.230;2022-12-18T08:38:20;-6.60;1.00
7542;DHT22;3812;50.006;8.230;2022-12-18T08:40:48;-6.60;1.00
7542;DHT22;3812;50.006;8.230;2022-12-18T08:43:15;-6.50;1.00
7542;DHT22;3812;50.006;8.230;2022-12-18T08:46:01;-6.40;1.00
7542;DHT22;3812;50.006;8.230;2022-12-18T08:48:28;-6.30;3.70
7542;DHT22;3812;50.006;8.230;2022-12-18T08:50:59;-6.20;6.50
7542;DHT22;3812;50.006;8.230;2022-12-18T08:53:27;-6.00;8.90
7542;DHT22;3812;50.006;8.230;2022-12-18T08:55:56;-5.90;12.60
7542;DHT22;3812;50.006;8.230;2022-12-18T08:58:23;-5.80;12.70
7542;DHT22;3812;50.006;8.230;2022-12-18T09:00:50;-5.70;11.00
7542;DHT22;3812;50.006;8.230;2022-12-18T09:03:19;-5.60;10.30
7542;DHT22;3812;50.006;8.230;2022-12-18T09:05:48;-5.40;7.40
7542;DHT22;3812;50.006;8.230;2022-12-18T09:08:15;-5.30;7.10
7542;DHT22;3812;50.006;8.230;2022-12-18T09:10:42;-5.20;6.10
7542;DHT22;3812;50.006;8.230;2022-12-18T09:13:10;-5.10;6.30
7542;DHT22;3812;50.006;8.230;2022-12-18T09:15:41;-5.00;7.10
7542;DHT22;3812;50.006;8.230;2022-12-18T09:18:09;-5.00;3.30
7542;DHT22;3812;50.006;8.230;2022-12-18T09:20:38;-4.90;1.00
7542;DHT22;3812;50.006;8.230;2022-12-18T09:23:05;-4.80;1.00
7542;DHT22;3812;50.006;8.230;2022-12-18T09:25:33;-4.80;1.00
7542;DHT22;3812;50.006;8.230;2022-12-18T09:28:02;-4.90;1.00
7542;DHT22;3812;50.006;8.230;2022-12-18T09:30:29;-4.80;1.00
7542;DHT22;3812;50.006;8.230;2022-12-18T09:32:59;-4.80;1.00
7542;DHT22;3812;50.006;8.230;2022-12-18T09:35:25;-4.60;1.00
7542;DHT22;3812;50.006;8.230;2022-12-18T09:37:54;-4.40;1.00
7542;DHT22;3812;50.006;8.230;2022-12-18T09:40:24;-4.30;1.00
7542;DHT22;3812;50.006;8.230;2022-12-18T09:42:55;-4.10;1.00
7542;DHT22;3812;50.006;8.230;2022-12-18T09:45:24;-4.00;1.00
7542;DHT22;3812;50.006;8.230;2022-12-18T09:47:52;-3.90;1.00
7542;DHT22;3812;50.006;8.230;2022-12-18T09:50:26;-3.70;1.00
7542;DHT22;3812;50.006;8.230;2022-12-18T09:52:59;-3.60;1.00
7542;DHT22;3812;50.006;8.230;2022-12-18T09:55:31;-3.60;1.00
7542;DHT22;3812;50.006;8.230;2022-12-18T09:58:04;-3.60;1.00
7542;DHT22;3812;50.006;8.230;2022-12-18T10:00:33;-3.60;1.00
7542;DHT22;3812;50.006;8.230;2022-12-18T10:03:03;-3.50;1.00
7542;DHT22;3812;50.006;8.230;2022-12-18T10:05:39;-3.40;1.00
7542;DHT22;3812;50.006;8.230;2022-12-18T10:08:13;-3.30;1.00
7542;DHT22;3812;50.006;8.230;2022-12-18T10:10:47;-3.00;1.00
7542;DHT22;3812;50.006;8.230;2022-12-18T10:13:23;-2.80;1.00
7542;DHT22;3812;50.006;8.230;2022-12-18T10:16:06;-2.50;1.00
7542;DHT22;3812;50.006;8.230;2022-12-18T10:18:50;-2.70;1.00
7542;DHT22;3812;50.006;8.230;2022-12-18T10:21:26;-2.20;1.00
7542;DHT22;3812;50.006;8.230;2022-12-18T10:24:03;-1.70;1.00
7542;DHT22;3812;50.006;8.230;2022-12-18T10:26:34;-1.60;1.00
7542;DHT22;3812;50.006;8.230;2022-12-18T10:29:04;-1.40;1.00
7542;DHT22;3812;50.006;8.230;2022-12-18T10:31:33;-1.30;1.00
7542;DHT22;3812;50.006;8.230;2022-12-18T10:34:01;-0.90;1.00
7542;DHT22;3812;50.006;8.230;2022-12-18T10:36:28;-0.50;1.00
7542;DHT22;3812;50.006;8.230;2022-12-18T10:39:15;-0.30;1.00
7542;DHT22;3812;50.006;8.230;2022-12-18T10:41:43;-0.20;1.00
7542;DHT22;3812;50.006;8.230;2022-12-18T10:44:14;-0.10;1.00
7542;DHT22;3812;50.006;8.230;2022-12-18T10:46:42;-0.10;1.00
7542;DHT22;3812;50.006;8.230;2022-12-18T10:49:19;-0.30;1.00
7542;DHT22;3812;50.006;8.230;2022-12-18T10:51:48;0.20;1.00
7542;DHT22;3812;50.006;8.230;2022-12-18T10:54:19;0.50;1.00
7542;DHT22;3812;50.006;8.230;2022-12-18T10:56:48;1.00;1.00
7542;DHT22;3812;50.006;8.230;2022-12-18T10:59:16;1.70;1.00
7542;DHT22;3812;50.006;8.230;2022-12-18T11:01:51;2.30;1.00
7542;DHT22;3812;50.006;8.230;2022-12-18T11:04:22;2.60;1.00
7542;DHT22;3812;50.006;8.230;2022-12-18T11:06:55;3.20;1.00
7542;DHT22;3812;50.006;8.230;2022-12-18T11:09:25;3.50;1.00
7542;DHT22;3812;50.006;8.230;2022-12-18T11:11:53;3.40;1.00
7542;DHT22;3812;50.006;8.230;2022-12-18T11:14:23;3.40;1.00
7542;DHT22;3812;50.006;8.230;2022-12-18T11:16:51;2.90;1.00
7542;DHT22;3812;50.006;8.230;2022-12-18T11:19:29;2.70;1.00
7542;DHT22;3812;50.006;8.230;2022-12-18T11:21:57;2.60;1.00
7542;DHT22;3812;50.006;8.230;2022-12-18T11:24:29;2.50;1.00
7542;DHT22;3812;50.006;8.230;2022-12-18T11:26:57;2.60;1.00
7542;DHT22;3812;50.006;8.230;2022-12-18T11:29:32;2.80;1.00
7542;DHT22;3812;50.006;8.230;2022-12-18T11:32:29;3.10;1.00
7542;DHT22;3812;50.006;8.230;2022-12-18T11:35:01;3.40;1.00
7542;DHT22;3812;50.006;8.230;2022-12-18T11:37:32;3.50;1.00
7542;DHT22;3812;50.006;8.230;2022-12-18T11:40:05;4.30;1.00
7542;DHT22;3812;50.006;8.230;2022-12-18T11:42:38;4.60;1.00
7542;DHT22;3812;50.006;8.230;2022-12-18T11:45:23;3.90;1.00
7542;DHT22;3812;50.006;8.230;2022-12-18T11:47:56;2.90;1.00
7542;DHT22;3812;50.006;8.230;2022-12-18T11:50:26;1.90;1.00
7542;DHT22;3812;50.006;8.230;2022-12-18T11:52:55;1.70;1.00
7542;DHT22;3812;50.006;8.230;2022-12-18T11:55:28;2.00;1.00
7542;DHT22;3812;50.006;8.230;2022-12-18T11:58:02;1.80;1.00
7542;DHT22;3812;50.006;8.230;2022-12-18T12:00:31;2.30;1.00
7542;DHT22;3812;50.006;8.230;2022-12-18T12:03:39;2.40;1.00
7542;DHT22;3812;50.006;8.230;2022-12-18T12:06:20;2.60;1.00
7542;DHT22;3812;50.006;8.230;2022-12-18T12:08:59;2.50;1.00
7542;DHT22;3812;50.006;8.230;2022-12-18T12:11:44;2.40;1.00
7542;DHT22;3812;50.006;8.230;2022-12-18T12:14:37;2.30;1.00
7542;DHT22;3812;50.006;8.230;2022-12-18T12:17:09;2.20;1.00
7542;DHT22;3812;50.006;8.230;2022-12-18T12:19:46;2.30;1.00
7542;DHT22;3812;50.006;8.230;2022-12-18T12:22:20;1.80;1.00
7542;DHT22;3812;50.006;8.230;2022-12-18T12:24:59;1.80;1.00
7542;DHT22;3812;50.006;8.230;2022-12-18T12:27:36;1.70;1.00
7542;DHT22;3812;50.006;8.230;2022-12-18T12:30:09;1.70;1.00
7542;DHT22;3812;50.006;8.230;2022-12-18T12:32:59;1.70;1.00
7542;DHT22;3812;50.006;8.230;2022-12-18T12:35:35;1.70;1.00
7542;DHT22;3812;50.006;8.230;2022-12-18T12:38:09;1.60;1.00
7542;DHT22;3812;50.006;8.230;2022-12-18T12:40:42;1.50;1.00
7542;DHT22;3812;50.006;8.230;2022-12-18T12:43:20;1.50;1.00
7542;DHT22;3812;50.006;8.230;2022-12-18T12:45:50;1.30;1.00
7542;DHT22;3812;50.006;8.230;2022-12-18T12:48:27;1.30;1.00
7542;DHT22;3812;50.006;8.230;2022-12-18T12:50:59;1.30;1.00
7542;DHT22;3812;50.006;8.230;2022-12-18T12:53:31;1.10;1.00
7542;DHT22;3812;50.006;8.230;2022-12-18T12:55:59;1.20;1.00
7542;DHT22;3812;50.006;8.230;2022-12-18T12:58:36;1.00;1.00
7542;DHT22;3812;50.006;8.230;2022-12-18T13:01:14;0.90;1.00
7542;DHT22;3812;50.006;8.230;2022-12-18T13:03:53;0.80;1.00
7542;DHT22;3812;50.006;8.230;2022-12-18T13:06:29;0.50;1.00
7542;DHT22;3812;50.006;8.230;2022-12-18T13:09:00;0.40;1.00
7542;DHT22;3812;50.006;8.230;2022-12-18T13:11:36;0.20;1.00
7542;DHT22;3812;50.006;8.230;2022-12-18T13:14:26;0.30;1.00
7542;DHT22;3812;50.006;8.230;2022-12-18T13:17:15;0.40;1.00
7542;DHT22;3812;50.006;8.230;2022-12-18T13:19:42;0.30;1.00
7542;DHT22;3812;50.006;8.230;2022-12-18T13:22:21;0.00;1.00
7542;DHT22;3812;50.006;8.230;2022-12-18T13:24:49;-0.30;1.00
7542;DHT22;3812;50.006;8.230;2022-12-18T13:27:51;-0.40;1.00
7542;DHT22;3812;50.006;8.230;2022-12-18T13:30:46;-0.30;1.00
7542;DHT22;3812;50.006;8.230;2022-12-18T13:33:43;-0.10;1.00
7542;DHT22;3812;50.006;8.230;2022-12-18T13:36:23;-0.20;1.00
7542;DHT22;3812;50.006;8.230;2022-12-18T13:41:53;-0.20;1.00
7542;DHT22;3812;50.006;8.230;2022-12-18T13:44:25;-0.10;1.00
7542;DHT22;3812;50.006;8.230;2022-12-18T13:46:57;-0.10;1.00
7542;DHT22;3812;50.006;8.230;2022-12-18T13:49:27;-0.20;1.00
7542;DHT22;3812;50.006;8.230;2022-12-18T13:51:56;-0.30;1.00
7542;DHT22;3812;50.006;8.230;2022-12-18T13:54:28;-0.30;1.00
7542;DHT22;3812;50.006;8.230;2022-12-18T13:56:56;-0.50;1.00
7542;DHT22;3812;50.006;8.230;2022-12-18T13:59:25;-0.90;1.00
7542;DHT22;3812;50.006;8.230;2022-12-18T14:01:55;-1.00;1.00
7542;DHT22;3812;50.006;8.230;2022-12-18T14:04:26;-0.90;1.00
7542;DHT22;3812;50.006;8.230;2022-12-18T14:06:57;-1.10;1.00
7542;DHT22;3812;50.006;8.230;2022-12-18T14:09:31;-1.00;1.00
7542;DHT22;3812;50.006;8.230;2022-12-18T14:12:00;-1.10;1.00
7542;DHT22;3812;50.006;8.230;2022-12-18T14:14:47;-1.10;1.00
7542;DHT22;3812;50.006;8.230;2022-12-18T14:17:17;-1.10;1.00
7542;DHT22;3812;50.006;8.230;2022-12-18T14:19:46;-1.20;1.00
7542;DHT22;3812;50.006;8.230;2022-12-18T14:22:16;-1.20;1.00
7542;DHT22;3812;50.006;8.230;2022-12-18T14:24:43;-1.30;1.00
7542;DHT22;3812;50.006;8.230;2022-12-18T14:27:22;-1.30;1.00
7542;DHT22;3812;50.006;8.230;2022-12-18T14:29:51;-1.40;1.00
7542;DHT22;3812;50.006;8.230;2022-12-18T14:32:20;-1.50;1.00
7542;DHT22;3812;50.006;8.230;2022-12-18T14:34:49;-1.60;1.00
7542;DHT22;3812;50.006;8.230;2022-12-18T14:37:20;-1.70;1.00
7542;DHT22;3812;50.006;8.230;2022-12-18T14:39:58;-1.80;1.00
7542;DHT22;3812;50.006;8.230;2022-12-18T14:42:26;-1.80;1.00
7542;DHT22;3812;50.006;8.230;2022-12-18T14:47:59;-1.90;1.00
7542;DHT22;3812;50.006;8.230;2022-12-18T14:50:26;-2.10;1.00
7542;DHT22;3812;50.006;8.230;2022-12-18T14:52:53;-2.20;1.00
7542;DHT22;3812;50.006;8.230;2022-12-18T14:55:21;-2.20;1.00
7542;DHT22;3812;50.006;8.230;2022-12-18T14:57:51;-2.30;1.00
7542;DHT22;3812;50.006;8.230;2022-12-18T15:00:21;-2.30;1.00
7542;DHT22;3812;50.006;8.230;2022-12-18T15:02:52;-2.40;1.00
7542;DHT22;3812;50.006;8.230;2022-12-18T15:05:25;-2.40;1.00
7542;DHT22;3812;50.006;8.230;2022-12-18T15:07:54;-2.50;1.00
7542;DHT22;3812;50.006;8.230;2022-12-18T15:10:23;-2.50;1.00
7542;DHT22;3812;50.006;8.230;2022-12-18T15:13:09;-2.60;1.00
7542;DHT22;3812;50.006;8.230;2022-12-18T15:15:47;-2.60;1.00
7542;DHT22;3812;50.006;8.230;2022-12-18T15:18:16;-2.70;1.00
7542;DHT22;3812;50.006;8.230;2022-12-18T15:20:48;-2.80;1.00
7542;DHT22;3812;50.006;8.230;2022-12-18T15:23:18;-2.80;1.00
7542;DHT22;3812;50.006;8.230;2022-12-18T15:25:46;-2.90;1.00
7542;DHT22;3812;50.006;8.230;2022-12-18T15:28:18;-3.00;1.00
7542;DHT22;3812;50.006;8.230;2022-12-18T15:31:00;-3.00;1.00
7542;DHT22;3812;50.006;8.230;2022-12-18T15:33:31;-3.00;1.00
7542;DHT22;3812;50.006;8.230;2022-12-18T15:36:01;-3.10;1.00
7542;DHT22;3812;50.006;8.230;2022-12-18T15:38:28;-3.20;1.00
7542;DHT22;3812;50.006;8.230;2022-12-18T15:40:55;-3.20;1.00
7542;DHT22;3812;50.006;8.230;2022-12-18T15:43:24;-3.30;1.00
7542;DHT22;3812;50.006;8.230;2022-12-18T15:45:59;-3.30;1.00
7542;DHT22;3812;50.006;8.230;2022-12-18T15:48:26;-3.30;1.00
7542;DHT22;3812;50.006;8.230;2022-12-18T15:50:55;-3.40;1.00
7542;DHT22;3812;50.006;8.230;2022-12-18T15:53:27;-3.40;1.00
7542;DHT22;3812;50.006;8.230;2022-12-18T15:55:55;-3.40;1.00
7542;DHT22;3812;50.006;8.230;2022-12-18T15:58:39;-3.40;1.00
7542;DHT22;3812;50.006;8.230;2022-12-18T16:01:08;-3.40;1.00
7542;DHT22;3812;50.006;8.230;2022-12-18T16:03:35;-3.40;1.00
7542;DHT22;3812;50.006;8.230;2022-12-18T16:06:02;-3.40;1.00
7542;DHT22;3812;50.006;8.230;2022-12-18T16:08:31;-3.40;1.00
7542;DHT22;3812;50.006;8.230;2022-12-18T16:10:59;-3.40;1.00
7542;DHT22;3812;50.006;8.230;2022-12-18T16:13:26;-3.40;1.00
7542;DHT22;3812;50.006;8.230;2022-12-18T16:15:53;-3.40;1.00
7542;DHT22;3812;50.006;8.230;2022-12-18T16:18:20;-3.40;1.00
7542;DHT22;3812;50.006;8.230;2022-12-18T16:20:47;-3.50;1.00
7542;DHT22;3812;50.006;8.230;2022-12-18T16:23:14;-3.50;1.00
7542;DHT22;3812;50.006;8.230;2022-12-18T16:25:43;-3.50;1.00
7542;DHT22;3812;50.006;8.230;2022-12-18T16:28:09;-3.40;1.00
7542;DHT22;3812;50.006;8.230;2022-12-18T16:30:36;-3.40;1.00
7542;DHT22;3812;50.006;8.230;2022-12-18T16:33:04;-3.40;1.00
7542;DHT22;3812;50.006;8.230;2022-12-18T16:35:31;-3.40;1.00
7542;DHT22;3812;50.006;8.230;2022-12-18T16:37:59;-3.40;1.00
7542;DHT22;3812;50.006;8.230;2022-12-18T16:40:26;-3.40;1.00
7542;DHT22;3812;50.006;8.230;2022-12-18T16:42:54;-3.40;1.00
7542;DHT22;3812;50.006;8.230;2022-12-18T16:45:21;-3.40;1.00
7542;DHT22;3812;50.006;8.230;2022-12-18T16:47:48;-3.30;1.00
7542;DHT22;3812;50.006;8.230;2022-12-18T16:50:15;-3.30;1.00